sensor_id;sensor_type;location;lat;lon;timestamp;temperature;humidity
26272;DHT22;13997;48.902;12.472;2022-11-25T00:00:27;128.50;2252.80
26272;DHT22;13997;48.902;12.472;2022-11-25T00:02:52;128.40;2252.80
26272;DHT22;13997;48.902;12.472;2022-11-25T00:05:18;128.40;2252.80
26272;DHT22;13997;48.902;12.472;2022-11-25T00:07:43;128.30;2252.80
26272;DHT22;13997;48.902;12.472;2022-11-25T00:10:09;128.20;2252.80
26272;DHT22;13997;48.902;12.472;2022-11-25T00:12:35;128.20;2252.80
26272;DHT22;13997;48.902;12.472;2022-11-25T00:15:00;128.20;2252.80
26272;DHT22;13997;48.902;12.472;2022-11-25T00:17:26;128.20;2252.80
26272;DHT22;13997;48.902;12.472;2022-11-25T00:19:52;128.10;2252.80
26272;DHT22;13997;48.902;12.472;2022-11-25T00:22:17;128.10;2252.80
26272;DHT22;13997;48.902;12.472;2022-11-25T00:24:43;128.10;2252.80
26272;DHT22;13997;48.902;12.472;2022-11-25T00:27:09;128.10;2252.80
26272;DHT22;13997;48.902;12.472;2022-11-25T00:29:34;128.10;2252.80
26272;DHT22;13997;48.902;12.472;2022-11-25T00:32:00;128.10;2252.80
26272;DHT22;13997;48.902;12.472;2022-11-25T00:34:25;128.00;2252.80
26272;DHT22;13997;48.902;12.472;2022-11-25T00:36:51;128.00;2252.80
26272;DHT22;13997;48.902;12.472;2022-11-25T00:39:18;128.00;2252.80
26272;DHT22;13997;48.902;12.472;2022-11-25T00:41:45;128.00;2252.80
26272;DHT22;13997;48.902;12.472;2022-11-25T00:44:29;128.00;2252.80
26272;DHT22;13997;48.902;12.472;2022-11-25T00:47:12;103.30;2227.20
26272;DHT22;13997;48.902;12.472;2022-11-25T00:49:40;103.30;2227.20
26272;DHT22;13997;48.902;12.472;2022-11-25T00:52:06;103.30;2227.20
26272;DHT22;13997;48.902;12.472;2022-11-25T00:54:32;103.30;2227.20
26272;DHT22;13997;48.902;12.472;2022-11-25T00:56:58;103.30;2227.20
26272;DHT22;13997;48.902;12.472;2022-11-25T00:59:23;103.20;2227.20
26272;DHT22;13997;48.902;12.472;2022-11-25T01:01:49;103.20;2227.20
26272;DHT22;13997;48.902;12.472;2022-11-25T01:04:16;103.20;2227.20
26272;DHT22;13997;48.902;12.472;2022-11-25T01:06:42;103.10;2227.20
26272;DHT22;13997;48.902;12.472;2022-11-25T01:09:10;103.10;2227.20
26272;DHT22;13997;48.902;12.472;2022-11-25T01:11:36;103.10;2227.20
26272;DHT22;13997;48.902;12.472;2022-11-25T01:14:02;103.00;2227.20
26272;DHT22;13997;48.902;12.472;2022-11-25T01:16:28;103.00;2227.20
26272;DHT22;13997;48.902;12.472;2022-11-25T01:18:54;103.00;2227.20
26272;DHT22;13997;48.902;12.472;2022-11-25T01:21:25;103.00;2227.20
26272;DHT22;13997;48.902;12.472;2022-11-25T01:23:52;102.90;2227.20
26272;DHT22;13997;48.902;12.472;2022-11-25T01:26:20;102.90;2227.20
26272;DHT22;13997;48.902;12.472;2022-11-25T01:28:46;102.90;2227.20
26272;DHT22;13997;48.902;12.472;2022-11-25T01:31:18;102.80;2227.20
26272;DHT22;13997;48.902;12.472;2022-11-25T01:33:45;102.80;2227.20
26272;DHT22;13997;48.902;12.472;2022-11-25T01:36:13;102.80;2227.20
26272;DHT22;13997;48.902;12.472;2022-11-25T01:38:39;102.80;2227.20
26272;DHT22;13997;48.902;12.472;2022-11-25T01:41:07;102.70;2227.20
26272;DHT22;13997;48.902;12.472;2022-11-25T01:43:33;102.60;2227.20
26272;DHT22;13997;48.902;12.472;2022-11-25T01:46:21;102.50;2227.20
26272;DHT22;13997;48.902;12.472;2022-11-25T01:48:59;102.40;2227.20
26272;DHT22;13997;48.902;12.472;2022-11-25T01:51:42;102.40;2227.20
26272;DHT22;13997;48.902;12.472;2022-11-25T01:54:12;102.40;2227.20
26272;DHT22;13997;48.902;12.472;2022-11-25T01:56:46;77.70;2227.20
26272;DHT22;13997;48.902;12.472;2022-11-25T01:59:14;77.60;2227.20
26272;DHT22;13997;48.902;12.472;2022-11-25T02:51:14;77.10;2227.20
26272;DHT22;13997;48.902;12.472;2022-11-25T02:53:40;77.10;2227.20
26272;DHT22;13997;48.902;12.472;2022-11-25T02:56:07;77.10;2227.20
26272;DHT22;13997;48.902;12.472;2022-11-25T02:58:32;77.10;2227.20
26272;DHT22;13997;48.902;12.472;2022-11-25T03:00:58;77.10;2227.20
26272;DHT22;13997;48.902;12.472;2022-11-25T03:03:24;77.00;2227.20
26272;DHT22;13997;48.902;12.472;2022-11-25T03:05:49;77.00;2227.20
26272;DHT22;13997;48.902;12.472;2022-11-25T08:11:29;52.00;2227.20
26272;DHT22;13997;48.902;12.472;2022-11-25T08:13:56;52.10;2227.20
26272;DHT22;13997;48.902;12.472;2022-11-25T08:16:23;76.80;2227.20
26272;DHT22;13997;48.902;12.472;2022-11-25T08:18:49;76.80;2227.20
26272;DHT22;13997;48.902;12.472;2022-11-25T08:21:16;76.90;2227.20
26272;DHT22;13997;48.902;12.472;2022-11-25T08:23:43;77.00;2227.20
26272;DHT22;13997;48.902;12.472;2022-11-25T08:26:12;77.10;2227.20
26272;DHT22;13997;48.902;12.472;2022-11-25T08:28:39;77.10;2227.20
26272;DHT22;13997;48.902;12.472;2022-11-25T08:31:10;77.20;2227.20
26272;DHT22;13997;48.902;12.472;2022-11-25T08:33:36;77.20;2227.20
26272;DHT22;13997;48.902;12.472;2022-11-25T08:36:02;77.20;2227.20
26272;DHT22;13997;48.902;12.472;2022-11-25T08:38:27;77.20;2227.20
26272;DHT22;13997;48.902;12.472;2022-11-25T08:40:56;77.20;2227.20
26272;DHT22;13997;48.902;12.472;2022-11-25T08:43:22;77.30;2227.20
26272;DHT22;13997;48.902;12.472;2022-11-25T08:45:48;77.30;2227.20
26272;DHT22;13997;48.902;12.472;2022-11-25T08:48:15;77.40;2227.20
26272;DHT22;13997;48.902;12.472;2022-11-25T08:50:45;77.50;2227.20
26272;DHT22;13997;48.902;12.472;2022-11-25T09:17:37;77.60;2227.20
26272;DHT22;13997;48.902;12.472;2022-11-25T09:20:04;77.60;2227.20
26272;DHT22;13997;48.902;12.472;2022-11-25T09:22:31;77.70;2227.20
26272;DHT22;13997;48.902;12.472;2022-11-25T09:24:56;77.70;2227.20
26272;DHT22;13997;48.902;12.472;2022-11-25T09:27:22;102.40;2227.20
26272;DHT22;13997;48.902;12.472;2022-11-25T09:29:48;102.50;2227.20
26272;DHT22;13997;48.902;12.472;2022-11-25T09:32:13;102.60;2227.20
26272;DHT22;13997;48.902;12.472;2022-11-25T09:34:39;102.70;2227.20
26272;DHT22;13997;48.902;12.472;2022-11-25T09:37:05;102.70;2227.20
26272;DHT22;13997;48.902;12.472;2022-11-25T09:39:30;102.70;2227.20
26272;DHT22;13997;48.902;12.472;2022-11-25T09:45:20;102.80;2227.20
26272;DHT22;13997;48.902;12.472;2022-11-25T09:51:00;103.00;2227.20
26272;DHT22;13997;48.902;12.472;2022-11-25T09:53:52;103.00;2227.20
26272;DHT22;13997;48.902;12.472;2022-11-25T09:56:38;103.10;2227.20
26272;DHT22;13997;48.902;12.472;2022-11-25T09:59:24;103.10;2227.20
26272;DHT22;13997;48.902;12.472;2022-11-25T10:01:57;103.20;2227.20
26272;DHT22;13997;48.902;12.472;2022-11-25T10:04:39;103.20;2227.20
26272;DHT22;13997;48.902;12.472;2022-11-25T10:07:13;103.20;2227.20
26272;DHT22;13997;48.902;12.472;2022-11-25T10:09:42;103.30;2227.20
26272;DHT22;13997;48.902;12.472;2022-11-25T10:12:25;128.00;2252.80
26272;DHT22;13997;48.902;12.472;2022-11-25T10:14:58;128.00;2252.80
26272;DHT22;13997;48.902;12.472;2022-11-25T10:17:46;128.00;2252.80
26272;DHT22;13997;48.902;12.472;2022-11-25T10:20:20;128.10;2252.80
26272;DHT22;13997;48.902;12.472;2022-11-25T10:23:34;128.20;2252.80
26272;DHT22;13997;48.902;12.472;2022-11-25T10:25:43;128.10;2252.80
26272;DHT22;13997;48.902;12.472;2022-11-25T10:28:22;128.20;2252.80
26272;DHT22;13997;48.902;12.472;2022-11-25T10:31:22;128.30;2252.80
26272;DHT22;13997;48.902;12.472;2022-11-25T10:33:54;128.30;2252.80
26272;DHT22;13997;48.902;12.472;2022-11-25T10:36:29;128.40;2252.80
26272;DHT22;13997;48.902;12.472;2022-11-25T10:39:21;128.50;2252.80
26272;DHT22;13997;48.902;12.472;2022-11-25T10:42:13;128.60;2252.80
26272;DHT22;13997;48.902;12.472;2022-11-25T10:44:40;128.60;2252.80
26272;DHT22;13997;48.902;12.472;2022-11-25T10:50:13;128.70;2252.80
26272;DHT22;13997;48.902;12.472;2022-11-25T10:55:21;153.60;2252.80
26272;DHT22;13997;48.902;12.472;2022-11-25T10:57:50;153.70;2252.80
26272;DHT22;13997;48.902;12.472;2022-11-25T11:00:26;153.80;2252.80
26272;DHT22;13997;48.902;12.472;2022-11-25T11:02:53;153.90;2252.80
26272;DHT22;13997;48.902;12.472;2022-11-25T11:05:28;154.00;2252.80
26272;DHT22;13997;48.902;12.472;2022-11-25T11:08:47;154.00;2252.80
26272;DHT22;13997;48.902;12.472;2022-11-25T11:11:20;154.00;2252.80
26272;DHT22;13997;48.902;12.472;2022-11-25T11:13:47;154.00;2252.80
26272;DHT22;13997;48.902;12.472;2022-11-25T11:16:38;154.00;2252.80
26272;DHT22;13997;48.902;12.472;2022-11-25T11:19:04;154.00;2252.80
26272;DHT22;13997;48.902;12.472;2022-11-25T11:21:43;154.10;2252.80
26272;DHT22;13997;48.902;12.472;2022-11-25T11:24:30;154.30;2252.80
26272;DHT22;13997;48.902;12.472;2022-11-25T11:27:15;154.40;2252.80
26272;DHT22;13997;48.902;12.472;2022-11-25T11:29:43;179.20;2252.80
26272;DHT22;13997;48.902;12.472;2022-11-25T11:32:21;179.30;2252.80
26272;DHT22;13997;48.902;12.472;2022-11-25T11:37:42;179.60;2252.80
26272;DHT22;13997;48.902;12.472;2022-11-25T11:40:29;179.60;2252.80
26272;DHT22;13997;48.902;12.472;2022-11-25T11:48:26;179.60;2252.80
26272;DHT22;13997;48.902;12.472;2022-11-25T12:04:21;179.60;2252.80
26272;DHT22;13997;48.902;12.472;2022-11-25T12:09:25;179.50;2252.80
26272;DHT22;13997;48.902;12.472;2022-11-25T12:11:56;179.50;2252.80
26272;DHT22;13997;48.902;12.472;2022-11-25T12:14:50;179.50;2252.80
26272;DHT22;13997;48.902;12.472;2022-11-25T12:17:29;179.50;2252.80
26272;DHT22;13997;48.902;12.472;2022-11-25T12:22:50;179.60;2252.80
26272;DHT22;13997;48.902;12.472;2022-11-25T12:25:29;179.60;2252.80
26272;DHT22;13997;48.902;12.472;2022-11-25T12:33:25;179.90;2252.80
26272;DHT22;13997;48.902;12.472;2022-11-25T12:35:53;180.00;2252.80
26272;DHT22;13997;48.902;12.472;2022-11-25T12:41:20;180.10;2252.80
26272;DHT22;13997;48.902;12.472;2022-11-25T12:43:59;180.10;2252.80
26272;DHT22;13997;48.902;12.472;2022-11-25T12:46:46;204.80;2252.80
26272;DHT22;13997;48.902;12.472;2022-11-25T12:49:24;204.80;2252.80
26272;DHT22;13997;48.902;12.472;2022-11-25T12:54:32;180.10;2252.80
26272;DHT22;13997;48.902;12.472;2022-11-25T13:00:05;180.00;2252.80
26272;DHT22;13997;48.902;12.472;2022-11-25T13:15:58;179.90;2252.80
26272;DHT22;13997;48.902;12.472;2022-11-25T13:18:28;179.80;2252.80
26272;DHT22;13997;48.902;12.472;2022-11-25T13:20:55;179.80;2252.80
26272;DHT22;13997;48.902;12.472;2022-11-25T13:23:23;179.80;2252.80
26272;DHT22;13997;48.902;12.472;2022-11-25T13:25:51;179.80;2252.80
26272;DHT22;13997;48.902;12.472;2022-11-25T13:28:36;179.80;2252.80
26272;DHT22;13997;48.902;12.472;2022-11-25T13:31:23;179.80;2252.80
26272;DHT22;13997;48.902;12.472;2022-11-25T13:33:55;179.80;2252.80
26272;DHT22;13997;48.902;12.472;2022-11-25T13:36:23;179.80;2252.80
26272;DHT22;13997;48.902;12.472;2022-11-25T13:46:43;179.80;2252.80
26272;DHT22;13997;48.902;12.472;2022-11-25T13:51:57;179.80;2252.80
26272;DHT22;13997;48.902;12.472;2022-11-25T13:54:30;179.80;2252.80
26272;DHT22;13997;48.902;12.472;2022-11-25T13:57:18;179.70;2252.80
26272;DHT22;13997;48.902;12.472;2022-11-25T13:59:50;179.70;2252.80
26272;DHT22;13997;48.902;12.472;2022-11-25T14:21:43;179.50;2252.80
26272;DHT22;13997;48.902;12.472;2022-11-25T14:27:00;179.40;2252.80
26272;DHT22;13997;48.902;12.472;2022-11-25T14:29:39;179.40;2252.80
26272;DHT22;13997;48.902;12.472;2022-11-25T14:32:27;179.40;2252.80
26272;DHT22;13997;48.902;12.472;2022-11-25T14:35:01;179.40;2252.80
26272;DHT22;13997;48.902;12.472;2022-11-25T14:40:26;179.40;2252.80
26272;DHT22;13997;48.902;12.472;2022-11-25T14:42:58;179.30;2252.80
26272;DHT22;13997;48.902;12.472;2022-11-25T14:45:32;179.30;2252.80
26272;DHT22;13997;48.902;12.472;2022-11-25T14:48:14;179.30;2252.80
26272;DHT22;13997;48.902;12.472;2022-11-25T14:50:57;179.30;2252.80
26272;DHT22;13997;48.902;12.472;2022-11-25T14:53:22;179.20;2252.80
26272;DHT22;13997;48.902;12.472;2022-11-25T14:55:48;179.20;2252.80
26272;DHT22;13997;48.902;12.472;2022-11-25T14:58:14;179.30;2252.80
26272;DHT22;13997;48.902;12.472;2022-11-25T15:01:17;179.20;2252.80
26272;DHT22;13997;48.902;12.472;2022-11-25T15:03:46;179.30;2252.80
26272;DHT22;13997;48.902;12.472;2022-11-25T15:06:13;179.30;2252.80
26272;DHT22;13997;48.902;12.472;2022-11-25T15:08:42;179.30;2252.80
26272;DHT22;13997;48.902;12.472;2022-11-25T15:11:13;179.30;2252.80
26272;DHT22;13997;48.902;12.472;2022-11-25T15:13:39;179.30;2252.80
26272;DHT22;13997;48.902;12.472;2022-11-25T15:18:54;179.30;2252.80
26272;DHT22;13997;48.902;12.472;2022-11-25T15:21:33;179.20;2252.80
26272;DHT22;13997;48.902;12.472;2022-11-25T15:24:00;179.20;2252.80
26272;DHT22;13997;48.902;12.472;2022-11-25T15:26:29;154.50;2252.80
26272;DHT22;13997;48.902;12.472;2022-11-25T15:29:09;154.50;2252.80
26272;DHT22;13997;48.902;12.472;2022-11-25T15:31:36;154.50;2252.80
26272;DHT22;13997;48.902;12.472;2022-11-25T15:34:06;154.50;2252.80
26272;DHT22;13997;48.902;12.472;2022-11-25T15:36:32;154.40;2252.80
26272;DHT22;13997;48.902;12.472;2022-11-25T15:42:06;154.40;2252.80
26272;DHT22;13997;48.902;12.472;2022-11-25T15:44:45;154.40;2252.80
26272;DHT22;13997;48.902;12.472;2022-11-25T15:47:23;154.40;2252.80
26272;DHT22;13997;48.902;12.472;2022-11-25T15:52:25;154.40;2252.80
26272;DHT22;13997;48.902;12.472;2022-11-25T15:54:56;154.40;2252.80
26272;DHT22;13997;48.902;12.472;2022-11-25T15:57:35;154.30;2252.80
26272;DHT22;13997;48.902;12.472;2022-11-25T16:00:14;154.40;2252.80
26272;DHT22;13997;48.902;12.472;2022-11-25T16:10:21;154.30;2252.80
26272;DHT22;13997;48.902;12.472;2022-11-25T16:18:13;154.30;2252.80
26272;DHT22;13997;48.902;12.472;2022-11-25T16:20:46;154.30;2252.80
26272;DHT22;13997;48.902;12.472;2022-11-25T16:23:13;154.20;2252.80
26272;DHT22;13997;48.902;12.472;2022-11-25T16:25:45;154.30;2252.80
26272;DHT22;13997;48.902;12.472;2022-11-25T16:28:19;154.30;2252.80
26272;DHT22;13997;48.902;12.472;2022-11-25T16:30:45;154.30;2252.80
26272;DHT22;13997;48.902;12.472;2022-11-25T16:33:11;154.30;2252.80
26272;DHT22;13997;48.902;12.472;2022-11-25T16:35:37;154.30;2252.80
26272;DHT22;13997;48.902;12.472;2022-11-25T16:38:02;154.30;2252.80
26272;DHT22;13997;48.902;12.472;2022-11-25T16:40:28;154.30;2252.80
26272;DHT22;13997;48.902;12.472;2022-11-25T16:42:54;154.30;2252.80
26272;DHT22;13997;48.902;12.472;2022-11-25T16:45:21;154.30;2252.80
26272;DHT22;13997;48.902;12.472;2022-11-25T16:47:47;154.30;2252.80
26272;DHT22;13997;48.902;12.472;2022-11-25T16:50:14;154.30;2252.80
26272;DHT22;13997;48.902;12.472;2022-11-25T16:52:41;154.30;2252.80
26272;DHT22;13997;48.902;12.472;2022-11-25T16:55:07;154.30;2252.80
26272;DHT22;13997;48.902;12.472;2022-11-25T16:57:34;154.30;2252.80
26272;DHT22;13997;48.902;12.472;2022-11-25T17:00:01;154.30;2252.80
26272;DHT22;13997;48.902;12.472;2022-11-25T17:02:33;154.30;2252.80
26272;DHT22;13997;48.902;12.472;2022-11-25T17:05:17;154.30;2252.80
26272;DHT22;13997;48.902;12.472;2022-11-25T17:07:43;154.30;2252.80
26272;DHT22;13997;48.902;12.472;2022-11-25T17:10:09;154.30;2252.80
26272;DHT22;13997;48.902;12.472;2022-11-25T17:12:36;154.30;2252.80
26272;DHT22;13997;48.902;12.472;2022-11-25T17:15:05;154.30;2252.80
26272;DHT22;13997;48.902;12.472;2022-11-25T17:17:31;154.20;2252.80
26272;DHT22;13997;48.902;12.472;2022-11-25T17:19:57;154.20;2252.80
26272;DHT22;13997;48.902;12.472;2022-11-25T17:22:25;154.20;2252.80
26272;DHT22;13997;48.902;12.472;2022-11-25T17:24:51;154.20;2252.80
26272;DHT22;13997;48.902;12.472;2022-11-25T17:27:26;154.20;2252.80
26272;DHT22;13997;48.902;12.472;2022-11-25T17:29:53;154.20;2252.80
26272;DHT22;13997;48.902;12.472;2022-11-25T17:32:20;154.20;2252.80
26272;DHT22;13997;48.902;12.472;2022-11-25T17:34:45;154.20;2252.80
26272;DHT22;13997;48.902;12.472;2022-11-25T17:37:16;154.20;2252.80
26272;DHT22;13997;48.902;12.472;2022-11-25T17:39:42;154.30;2252.80
26272;DHT22;13997;48.902;12.472;2022-11-25T17:42:18;154.30;2252.80
26272;DHT22;13997;48.902;12.472;2022-11-25T17:44:47;154.30;2252.80
26272;DHT22;13997;48.902;12.472;2022-11-25T17:47:14;154.30;2252.80
26272;DHT22;13997;48.902;12.472;2022-11-25T17:49:40;154.30;2252.80
26272;DHT22;13997;48.902;12.472;2022-11-25T17:52:06;154.30;2252.80
26272;DHT22;13997;48.902;12.472;2022-11-25T17:54:32;154.30;2252.80
26272;DHT22;13997;48.902;12.472;2022-11-25T17:56:58;154.30;2252.80
26272;DHT22;13997;48.902;12.472;2022-11-25T17:59:26;154.30;2252.80
26272;DHT22;13997;48.902;12.472;2022-11-25T18:01:53;154.30;2252.80
26272;DHT22;13997;48.902;12.472;2022-11-25T18:04:24;154.30;2252.80
26272;DHT22;13997;48.902;12.472;2022-11-25T18:06:50;154.30;2252.80
26272;DHT22;13997;48.902;12.472;2022-11-25T18:09:17;154.20;2252.80
26272;DHT22;13997;48.902;12.472;2022-11-25T18:11:45;154.20;2252.80
26272;DHT22;13997;48.902;12.472;2022-11-25T18:14:15;154.20;2252.80
26272;DHT22;13997;48.902;12.472;2022-11-25T18:16:44;154.10;2252.80
26272;DHT22;13997;48.902;12.472;2022-11-25T18:19:14;154.10;2252.80
26272;DHT22;13997;48.902;12.472;2022-11-25T18:21:40;154.10;2252.80
26272;DHT22;13997;48.902;12.472;2022-11-25T18:24:07;154.00;2252.80
26272;DHT22;13997;48.902;12.472;2022-11-25T18:26:41;154.00;2252.80
26272;DHT22;13997;48.902;12.472;2022-11-25T18:29:19;154.00;2252.80
26272;DHT22;13997;48.902;12.472;2022-11-25T18:31:45;154.10;2252.80
26272;DHT22;13997;48.902;12.472;2022-11-25T18:34:14;154.10;2252.80
26272;DHT22;13997;48.902;12.472;2022-11-25T18:36:41;154.10;2252.80
26272;DHT22;13997;48.902;12.472;2022-11-25T18:39:07;154.10;2252.80
26272;DHT22;13997;48.902;12.472;2022-11-25T18:41:33;154.20;2252.80
26272;DHT22;13997;48.902;12.472;2022-11-25T18:44:01;154.10;2252.80
26272;DHT22;13997;48.902;12.472;2022-11-25T18:46:32;154.10;2252.80
26272;DHT22;13997;48.902;12.472;2022-11-25T18:48:59;154.10;2252.80
26272;DHT22;13997;48.902;12.472;2022-11-25T18:51:24;154.20;2252.80
26272;DHT22;13997;48.902;12.472;2022-11-25T18:53:50;154.20;2252.80
26272;DHT22;13997;48.902;12.472;2022-11-25T18:56:15;154.20;2252.80
26272;DHT22;13997;48.902;12.472;2022-11-25T18:58:42;154.20;2252.80
26272;DHT22;13997;48.902;12.472;2022-11-25T19:01:11;154.20;2252.80
26272;DHT22;13997;48.902;12.472;2022-11-25T19:03:38;154.20;2252.80
26272;DHT22;13997;48.902;12.472;2022-11-25T19:06:04;154.30;2252.80
26272;DHT22;13997;48.902;12.472;2022-11-25T19:08:30;154.30;2252.80
26272;DHT22;13997;48.902;12.472;2022-11-25T19:10:56;154.30;2252.80
26272;DHT22;13997;48.902;12.472;2022-11-25T19:13:27;154.30;2252.80
26272;DHT22;13997;48.902;12.472;2022-11-25T19:15:56;154.30;2252.80
26272;DHT22;13997;48.902;12.472;2022-11-25T19:18:24;154.30;2252.80
26272;DHT22;13997;48.902;12.472;2022-11-25T19:20:51;154.30;2252.80
26272;DHT22;13997;48.902;12.472;2022-11-25T19:23:19;154.30;2252.80
26272;DHT22;13997;48.902;12.472;2022-11-25T19:25:47;154.30;2252.80
26272;DHT22;13997;48.902;12.472;2022-11-25T19:28:14;154.30;2252.80
26272;DHT22;13997;48.902;12.472;2022-11-25T19:30:41;154.30;2252.80
26272;DHT22;13997;48.902;12.472;2022-11-25T19:33:21;154.30;2252.80
26272;DHT22;13997;48.902;12.472;2022-11-25T19:35:48;154.30;2252.80
26272;DHT22;13997;48.902;12.472;2022-11-25T19:38:19;154.30;2252.80
26272;DHT22;13997;48.902;12.472;2022-11-25T19:40:46;154.30;2252.80
26272;DHT22;13997;48.902;12.472;2022-11-25T19:43:12;154.30;2252.80
26272;DHT22;13997;48.902;12.472;2022-11-25T19:45:38;154.30;2252.80
26272;DHT22;13997;48.902;12.472;2022-11-25T19:48:07;154.30;2252.80
26272;DHT22;13997;48.902;12.472;2022-11-25T19:50:37;154.30;2252.80
26272;DHT22;13997;48.902;12.472;2022-11-25T19:53:04;154.30;2252.80
26272;DHT22;13997;48.902;12.472;2022-11-25T19:55:30;154.30;2252.80
26272;DHT22;13997;48.902;12.472;2022-11-25T19:57:57;154.30;2252.80
26272;DHT22;13997;48.902;12.472;2022-11-25T20:00:23;154.30;2252.80
26272;DHT22;13997;48.902;12.472;2022-11-25T20:02:53;154.40;2252.80
26272;DHT22;13997;48.902;12.472;2022-11-25T20:05:42;154.40;2252.80
26272;DHT22;13997;48.902;12.472;2022-11-25T20:08:12;154.40;2252.80
26272;DHT22;13997;48.902;12.472;2022-11-25T20:10:41;154.40;2252.80
26272;DHT22;13997;48.902;12.472;2022-11-25T20:13:08;154.40;2252.80
26272;DHT22;13997;48.902;12.472;2022-11-25T20:15:36;154.30;2252.80
26272;DHT22;13997;48.902;12.472;2022-11-25T20:18:02;154.30;2252.80
26272;DHT22;13997;48.902;12.472;2022-11-25T20:20:31;154.30;2252.80
26272;DHT22;13997;48.902;12.472;2022-11-25T20:23:04;154.30;2252.80
26272;DHT22;13997;48.902;12.472;2022-11-25T20:25:33;154.30;2252.80
26272;DHT22;13997;48.902;12.472;2022-11-25T20:28:00;154.30;2252.80
26272;DHT22;13997;48.902;12.472;2022-11-25T20:30:27;154.30;2252.80
26272;DHT22;13997;48.902;12.472;2022-11-25T20:32:54;154.30;2252.80
26272;DHT22;13997;48.902;12.472;2022-11-25T20:35:20;154.30;2252.80
26272;DHT22;13997;48.902;12.472;2022-11-25T20:37:46;154.20;2252.80
26272;DHT22;13997;48.902;12.472;2022-11-25T20:40:21;154.20;2252.80
26272;DHT22;13997;48.902;12.472;2022-11-25T20:42:48;154.20;2252.80
26272;DHT22;13997;48.902;12.472;2022-11-25T20:45:18;154.20;2252.80
26272;DHT22;13997;48.902;12.472;2022-11-25T20:47:44;154.20;2252.80
26272;DHT22;13997;48.902;12.472;2022-11-25T20:50:12;154.20;2252.80
26272;DHT22;13997;48.902;12.472;2022-11-25T20:52:38;154.20;2252.80
26272;DHT22;13997;48.902;12.472;2022-11-25T20:55:17;154.20;2252.80
26272;DHT22;13997;48.902;12.472;2022-11-25T20:57:43;154.20;2252.80
26272;DHT22;13997;48.902;12.472;2022-11-25T21:00:21;154.20;2252.80
26272;DHT22;13997;48.902;12.472;2022-11-25T21:02:47;154.20;2252.80
26272;DHT22;13997;48.902;12.472;2022-11-25T21:05:13;154.30;2252.80
26272;DHT22;13997;48.902;12.472;2022-11-25T21:07:39;154.20;2252.80
26272;DHT22;13997;48.902;12.472;2022-11-25T21:10:24;154.20;2252.80
26272;DHT22;13997;48.902;12.472;2022-11-25T21:12:50;154.20;2252.80
26272;DHT22;13997;48.902;12.472;2022-11-25T21:15:21;154.20;2252.80
26272;DHT22;13997;48.902;12.472;2022-11-25T21:17:46;154.20;2252.80
26272;DHT22;13997;48.902;12.472;2022-11-25T21:20:13;154.20;2252.80
26272;DHT22;13997;48.902;12.472;2022-11-25T21:22:41;154.20;2252.80
26272;DHT22;13997;48.902;12.472;2022-11-25T21:25:16;154.20;2252.80
26272;DHT22;13997;48.902;12.472;2022-11-25T21:27:43;154.20;2252.80
26272;DHT22;13997;48.902;12.472;2022-11-25T21:30:20;154.20;2252.80
26272;DHT22;13997;48.902;12.472;2022-11-25T21:32:47;154.20;2252.80
26272;DHT22;13997;48.902;12.472;2022-11-25T21:35:13;154.20;2252.80
26272;DHT22;13997;48.902;12.472;2022-11-25T21:37:40;154.20;2252.80
26272;DHT22;13997;48.902;12.472;2022-11-25T21:42:46;154.20;2252.80
26272;DHT22;13997;48.902;12.472;2022-11-25T21:45:15;154.20;2252.80
26272;DHT22;13997;48.902;12.472;2022-11-25T21:47:41;154.20;2252.80
26272;DHT22;13997;48.902;12.472;2022-11-25T21:50:17;154.20;2252.80
26272;DHT22;13997;48.902;12.472;2022-11-25T21:52:43;154.20;2252.80
26272;DHT22;13997;48.902;12.472;2022-11-25T21:55:13;154.20;2252.80
26272;DHT22;13997;48.902;12.472;2022-11-25T21:57:40;154.20;2252.80
26272;DHT22;13997;48.902;12.472;2022-11-25T22:00:20;154.20;2252.80
26272;DHT22;13997;48.902;12.472;2022-11-25T22:02:47;154.30;2252.80
26272;DHT22;13997;48.902;12.472;2022-11-25T22:05:15;154.30;2252.80
26272;DHT22;13997;48.902;12.472;2022-11-25T22:07:41;154.30;2252.80
26272;DHT22;13997;48.902;12.472;2022-11-25T22:10:07;154.20;2252.80
26272;DHT22;13997;48.902;12.472;2022-11-25T22:12:33;154.30;2252.80
26272;DHT22;13997;48.902;12.472;2022-11-25T22:14:59;154.20;2252.80
26272;DHT22;13997;48.902;12.472;2022-11-25T22:17:26;154.20;2252.80
26272;DHT22;13997;48.902;12.472;2022-11-25T22:19:52;154.20;2252.80
26272;DHT22;13997;48.902;12.472;2022-11-25T22:22:18;154.20;2252.80
26272;DHT22;13997;48.902;12.472;2022-11-25T22:24:44;154.20;2252.80
26272;DHT22;13997;48.902;12.472;2022-11-25T22:27:29;154.10;2252.80
26272;DHT22;13997;48.902;12.472;2022-11-25T22:30:02;154.10;2252.80
26272;DHT22;13997;48.902;12.472;2022-11-25T22:32:28;154.10;2252.80
26272;DHT22;13997;48.902;12.472;2022-11-25T22:34:53;154.10;2252.80
26272;DHT22;13997;48.902;12.472;2022-11-25T22:37:21;154.10;2252.80
26272;DHT22;13997;48.902;12.472;2022-11-25T22:39:47;154.10;2252.80
26272;DHT22;13997;48.902;12.472;2022-11-25T22:42:25;154.10;2252.80
26272;DHT22;13997;48.902;12.472;2022-11-25T22:44:52;154.10;2252.80
26272;DHT22;13997;48.902;12.472;2022-11-25T22:47:37;154.10;2252.80
26272;DHT22;13997;48.902;12.472;2022-11-25T22:50:07;154.10;2252.80
26272;DHT22;13997;48.902;12.472;2022-11-25T22:52:38;154.10;2252.80
26272;DHT22;13997;48.902;12.472;2022-11-25T22:57:39;154.10;2252.80
26272;DHT22;13997;48.902;12.472;2022-11-25T23:00:06;154.10;2252.80
26272;DHT22;13997;48.902;12.472;2022-11-25T23:02:34;154.10;2252.80
26272;DHT22;13997;48.902;12.472;2022-11-25T23:05:00;154.10;2252.80
26272;DHT22;13997;48.902;12.472;2022-11-25T23:07:26;154.10;2252.80
26272;DHT22;13997;48.902;12.472;2022-11-25T23:09:52;154.10;2252.80
26272;DHT22;13997;48.902;12.472;2022-11-25T23:12:18;154.10;2252.80
26272;DHT22;13997;48.902;12.472;2022-11-25T23:14:44;154.10;2252.80
26272;DHT22;13997;48.902;12.472;2022-11-25T23:17:22;154.10;2252.80
26272;DHT22;13997;48.902;12.472;2022-11-25T23:19:48;154.10;2252.80